Time;durP1;ratioP1;P1;durP2;ratioP2;P2;SDS_P1;SDS_P2;PMS_P1;PMS_P2;Temp;Humidity;BMP_temperature;BMP_pressure;BME280_temperature;BME280_humidity;BME280_pressure;Samples;Min_cycle;Max_cycle;Signal;HPM_P1;HPM_P2
2023/04/08 00:00:27;;;;;;;24.13;14.80;;;8.50;99.90;;;;;;5090359;28;20532;-69
2023/04/08 00:02:54;;;;;;;25.47;14.80;;;8.50;99.90;;;;;;5090405;28;20578;-69
2023/04/08 00:05:21;;;;;;;21.47;14.00;;;8.50;99.90;;;;;;5101433;28;20523;-70
2023/04/08 00:07:48;;;;;;;26.90;14.27;;;8.40;99.90;;;;;;5101610;28;20469;-71
2023/04/08 00:10:16;;;;;;;20.73;13.83;;;8.40;99.90;;;;;;5095087;28;20943;-70
2023/04/08 00:12:44;;;;;;;19.50;13.40;;;8.40;99.90;;;;;;5096199;28;21078;-71
2023/04/08 00:15:11;;;;;;;31.00;13.70;;;8.40;99.90;;;;;;5100022;28;20462;-71
2023/04/08 00:17:37;;;;;;;24.33;14.67;;;8.40;99.90;;;;;;5088549;28;20457;-70
2023/04/08 00:20:06;;;;;;;25.90;14.00;;;8.50;99.90;;;;;;5098973;28;21052;-69
2023/04/08 00:22:33;;;;;;;26.70;14.13;;;8.50;99.90;;;;;;5095500;28;20889;-69
2023/04/08 00:25:00;;;;;;;20.40;13.80;;;8.50;99.90;;;;;;5097011;28;20466;-70
2023/04/08 00:27:30;;;;;;;25.87;13.60;;;8.50;99.90;;;;;;5099780;28;20725;-70
2023/04/08 00:29:58;;;;;;;24.40;14.83;;;8.60;99.90;;;;;;5095212;28;20452;-71
2023/04/08 00:32:26;;;;;;;20.93;15.00;;;8.70;99.90;;;;;;5089017;28;20860;-69
2023/04/08 00:34:53;;;;;;;23.77;13.17;;;8.60;99.90;;;;;;5091724;28;20466;-69
2023/04/08 00:37:20;;;;;;;24.23;14.40;;;8.60;99.90;;;;;;5099781;28;20496;-69
2023/04/08 00:39:46;;;;;;;22.57;13.23;;;8.50;99.90;;;;;;5094004;28;20878;-69
2023/04/08 00:42:13;;;;;;;24.33;15.27;;;8.50;99.90;;;;;;5089159;28;20461;-70
2023/04/08 00:44:41;;;;;;;23.17;15.50;;;8.50;99.90;;;;;;5097356;28;20522;-70
2023/04/08 00:47:12;;;;;;;22.63;14.80;;;8.50;99.90;;;;;;5090958;28;20898;-70
2023/04/08 00:49:39;;;;;;;25.30;15.20;;;8.60;99.90;;;;;;5089110;28;20591;-70
2023/04/08 00:52:06;;;;;;;24.00;14.50;;;8.60;99.90;;;;;;5103030;28;20898;-70
2023/04/08 00:54:33;;;;;;;27.23;14.73;;;8.50;99.90;;;;;;5101867;28;20460;-70
2023/04/08 00:57:01;;;;;;;25.30;14.37;;;8.50;99.90;;;;;;5104029;28;21031;-70
2023/04/08 00:59:30;;;;;;;20.57;15.00;;;8.50;99.90;;;;;;5096565;28;20514;-71
2023/04/08 01:02:07;;;;;;;22.97;14.37;;;8.50;99.90;;;;;;5098160;28;20461;-69
2023/04/08 01:04:44;;;;;;;34.20;14.20;;;8.50;99.90;;;;;;5102776;28;20788;-70
2023/04/08 01:07:15;;;;;;;32.10;15.20;;;8.50;99.90;;;;;;5098877;28;20465;-70
2023/04/08 01:09:47;;;;;;;26.30;16.27;;;8.60;99.90;;;;;;5095820;28;20591;-69
2023/04/08 01:12:22;;;;;;;22.67;18.40;;;8.40;99.90;;;;;;5103633;28;20461;-69
2023/04/08 01:14:50;;;;;;;24.90;20.67;;;8.40;99.90;;;;;;5102927;28;20470;-69
2023/04/08 01:17:22;;;;;;;37.17;20.23;;;8.40;99.90;;;;;;5090199;28;20528;-69
2023/04/08 01:19:50;;;;;;;31.53;24.70;;;8.40;99.90;;;;;;5086108;28;20486;-68
2023/04/08 01:22:26;;;;;;;27.07;22.87;;;8.40;99.90;;;;;;5091603;28;20462;-68
2023/04/08 01:24:59;;;;;;;34.83;26.67;;;8.30;99.90;;;;;;5099742;28;20697;-68
2023/04/08 01:27:28;;;;;;;29.33;25.90;;;8.30;99.90;;;;;;5102410;28;21015;-69
2023/04/08 01:29:56;;;;;;;28.53;25.53;;;8.30;99.90;;;;;;5099234;28;20962;-69
2023/04/08 01:32:24;;;;;;;33.23;26.63;;;8.30;99.90;;;;;;5093817;28;20464;-68
2023/04/08 01:34:52;;;;;;;33.13;27.33;;;8.20;99.90;;;;;;5097783;28;20869;-69
2023/04/08 01:37:20;;;;;;;32.83;27.87;;;8.20;99.90;;;;;;5107796;28;20468;-68
2023/04/08 01:39:48;;;;;;;36.60;27.00;;;8.20;99.90;;;;;;5092839;28;20527;-69
2023/04/08 01:42:16;;;;;;;32.00;26.70;;;8.20;99.90;;;;;;5096198;28;20462;-68
2023/04/08 01:44:45;;;;;;;40.00;26.67;;;8.30;99.90;;;;;;5093547;28;20510;-69
2023/04/08 01:47:14;;;;;;;32.90;27.23;;;8.30;99.90;;;;;;5090729;28;20863;-69
2023/04/08 01:49:42;;;;;;;30.23;26.70;;;8.20;99.90;;;;;;5101857;28;20857;-69
2023/04/08 01:52:10;;;;;;;40.13;25.97;;;8.20;99.90;;;;;;5097173;28;20805;-69
2023/04/08 01:54:37;;;;;;;38.33;26.20;;;8.30;99.90;;;;;;5100323;28;20871;-68
2023/04/08 01:57:07;;;;;;;34.10;26.97;;;8.20;99.90;;;;;;5110180;28;20461;-69
2023/04/08 01:59:38;;;;;;;32.40;29.07;;;8.20;99.90;;;;;;5083656;28;20461;-69
2023/04/08 02:02:08;;;;;;;46.90;28.43;;;8.20;99.90;;;;;;5094769;28;20514;-69
2023/04/08 02:04:36;;;;;;;33.63;26.70;;;8.20;99.90;;;;;;5098337;28;20502;-68
2023/04/08 02:07:04;;;;;;;32.33;27.50;;;8.20;99.90;;;;;;5091408;28;20458;-69
2023/04/08 02:09:32;;;;;;;31.03;27.23;;;8.20;99.90;;;;;;5091903;28;20520;-69
2023/04/08 02:11:58;;;;;;;30.20;27.00;;;8.20;99.90;;;;;;5098431;28;20470;-69
2023/04/08 02:14:26;;;;;;;39.63;29.57;;;8.20;99.90;;;;;;5099139;28;20565;-69
2023/04/08 02:16:55;;;;;;;30.27;27.07;;;8.20;99.90;;;;;;5095807;28;20506;-70
2023/04/08 02:19:29;;;;;;;31.27;26.50;;;8.20;99.90;;;;;;5102514;28;20467;-69
2023/04/08 02:22:02;;;;;;;33.93;27.93;;;8.20;99.90;;;;;;5096004;28;20570;-69
2023/04/08 02:24:31;;;;;;;37.50;27.53;;;8.20;99.90;;;;;;5101610;28;20464;-69
2023/04/08 02:27:00;;;;;;;44.23;28.10;;;8.20;99.90;;;;;;5095816;28;20457;-68
2023/04/08 02:29:29;;;;;;;37.57;28.80;;;8.10;99.90;;;;;;5095898;28;20478;-69
2023/04/08 02:31:57;;;;;;;33.97;27.07;;;8.10;99.90;;;;;;5092241;28;20895;-69
2023/04/08 02:34:25;;;;;;;41.47;28.60;;;8.20;99.90;;;;;;5102461;28;20464;-69
2023/04/08 02:36:53;;;;;;;32.30;27.47;;;8.20;99.90;;;;;;5089186;28;20517;-69
2023/04/08 02:39:21;;;;;;;34.43;28.17;;;8.10;99.90;;;;;;5103804;28;20488;-69
2023/04/08 02:41:48;;;;;;;29.60;26.50;;;8.20;99.90;;;;;;5105907;28;20504;-68
2023/04/08 02:44:16;;;;;;;40.37;26.90;;;8.10;99.90;;;;;;5108352;28;20457;-69
2023/04/08 02:46:42;;;;;;;33.63;26.67;;;8.20;99.90;;;;;;5095061;28;20554;-69
2023/04/08 02:49:10;;;;;;;43.53;28.37;;;8.20;99.90;;;;;;5094190;28;20453;-69
2023/04/08 02:51:38;;;;;;;41.87;27.87;;;8.20;99.90;;;;;;5100045;28;20454;-68
2023/04/08 02:54:05;;;;;;;40.30;27.50;;;8.20;99.90;;;;;;5102066;28;20953;-69
2023/04/08 02:56:32;;;;;;;32.30;28.10;;;8.30;99.90;;;;;;5099151;28;20461;-69
2023/04/08 02:58:59;;;;;;;34.80;26.90;;;8.30;99.90;;;;;;5105700;28;20553;-69
2023/04/08 03:01:26;;;;;;;33.90;27.97;;;8.30;99.90;;;;;;5090609;28;21038;-69
2023/04/08 03:03:53;;;;;;;32.60;27.00;;;8.20;99.90;;;;;;5089159;28;20466;-69
2023/04/08 03:06:20;;;;;;;32.27;28.67;;;8.20;99.90;;;;;;5091760;28;20466;-70
2023/04/08 03:08:49;;;;;;;31.07;27.40;;;8.10;99.90;;;;;;5101813;28;20457;-69
2023/04/08 03:11:16;;;;;;;12.90;12.40;;;8.00;99.90;;;;;;5096679;28;21023;-69
2023/04/08 03:13:43;;;;;;;14.07;13.33;;;8.00;99.90;;;;;;5101723;28;20469;-70
2023/04/08 03:16:11;;;;;;;14.13;13.53;;;8.00;99.90;;;;;;5087927;28;20875;-69
2023/04/08 03:18:38;;;;;;;13.00;12.50;;;8.00;99.90;;;;;;5099415;28;20457;-69
2023/04/08 03:21:05;;;;;;;12.37;11.80;;;8.00;99.90;;;;;;5094668;28;21055;-69
2023/04/08 03:23:32;;;;;;;13.20;12.60;;;8.00;99.90;;;;;;5097237;28;20466;-69
2023/04/08 03:26:01;;;;;;;12.10;11.60;;;8.00;99.90;;;;;;5101520;28;20939;-68
2023/04/08 03:28:28;;;;;;;12.93;12.33;;;8.00;99.90;;;;;;5099955;28;20506;-69
2023/04/08 03:30:55;;;;;;;12.50;12.00;;;8.00;99.90;;;;;;5089983;28;20936;-68
2023/04/08 03:33:22;;;;;;;11.33;10.90;;;7.90;99.90;;;;;;5085941;28;20504;-69
2023/04/08 03:35:48;;;;;;;10.80;10.40;;;7.90;99.90;;;;;;5101424;28;20506;-69
2023/04/08 03:38:15;;;;;;;13.33;12.60;;;8.10;99.90;;;;;;5100783;28;20522;-70
2023/04/08 03:40:42;;;;;;;11.87;11.37;;;8.10;99.90;;;;;;5096643;28;20497;-70
2023/04/08 03:43:11;;;;;;;10.73;10.33;;;8.20;99.90;;;;;;5099276;28;20461;-69
2023/04/08 03:45:38;;;;;;;11.03;10.63;;;8.20;99.90;;;;;;5095318;28;20511;-68
2023/04/08 03:48:05;;;;;;;11.33;10.73;;;8.20;99.90;;;;;;5087954;28;21064;-69
2023/04/08 03:50:32;;;;;;;13.93;12.83;;;8.10;99.90;;;;;;5101066;28;21032;-68
2023/04/08 03:52:58;;;;;;;10.73;10.17;;;8.10;99.90;;;;;;5101370;28;20464;-69
2023/04/08 03:55:26;;;;;;;10.63;10.03;;;8.10;99.90;;;;;;5095405;28;20662;-69
2023/04/08 03:57:52;;;;;;;10.93;10.47;;;8.00;99.90;;;;;;5107005;28;20541;-70
2023/04/08 04:00:21;;;;;;;11.80;11.20;;;7.90;99.90;;;;;;5093472;28;20814;-69
2023/04/08 04:02:47;;;;;;;9.90;9.50;;;7.90;99.90;;;;;;5099826;28;20467;-68
2023/04/08 04:05:14;;;;;;;9.77;9.37;;;7.90;99.90;;;;;;5089313;28;21008;-69
2023/04/08 04:07:41;;;;;;;12.03;11.40;;;7.90;99.90;;;;;;5100951;28;20541;-70
2023/04/08 04:10:09;;;;;;;9.60;9.30;;;7.90;99.90;;;;;;5087447;28;20454;-70
2023/04/08 04:12:36;;;;;;;10.90;10.10;;;8.00;99.90;;;;;;5091304;28;20469;-69
2023/04/08 04:15:04;;;;;;;10.20;9.80;;;8.00;99.90;;;;;;5100550;28;20511;-70
2023/04/08 04:17:32;;;;;;;10.93;10.53;;;8.10;99.90;;;;;;5094704;28;20472;-69
2023/04/08 04:19:58;;;;;;;10.87;10.43;;;8.10;99.90;;;;;;5111092;28;20449;-70
2023/04/08 04:22:26;;;;;;;12.93;12.00;;;8.10;99.90;;;;;;5108253;28;20493;-70
2023/04/08 04:24:52;;;;;;;12.03;9.60;;;8.20;99.90;;;;;;5101749;28;20499;-70
2023/04/08 04:27:19;;;;;;;9.50;9.17;;;8.20;99.90;;;;;;5098498;28;20464;-68
2023/04/08 04:29:46;;;;;;;13.73;12.93;;;8.10;99.90;;;;;;5100899;28;20454;-69
2023/04/08 04:32:13;;;;;;;9.10;8.70;;;8.10;99.90;;;;;;5104848;28;20450;-68
2023/04/08 04:34:41;;;;;;;10.87;10.00;;;8.10;99.90;;;;;;5102248;28;20499;-70
2023/04/08 04:37:08;;;;;;;9.13;8.40;;;8.10;99.90;;;;;;5097909;28;20478;-70
2023/04/08 04:39:34;;;;;;;10.13;9.73;;;8.10;99.90;;;;;;5103321;28;20881;-70
2023/04/08 04:42:02;;;;;;;9.83;9.33;;;8.00;99.90;;;;;;5092235;28;20498;-69
2023/04/08 04:44:29;;;;;;;8.90;8.60;;;8.00;99.90;;;;;;5102531;28;20458;-70
2023/04/08 04:46:56;;;;;;;8.47;8.07;;;8.00;99.90;;;;;;5093370;28;20972;-69
2023/04/08 04:49:23;;;;;;;9.87;9.47;;;8.10;99.90;;;;;;5103759;28;20969;-70
2023/04/08 04:51:51;;;;;;;8.40;8.10;;;8.00;99.90;;;;;;5097653;28;20460;-69
2023/04/08 04:54:18;;;;;;;8.90;8.50;;;8.00;99.90;;;;;;5106733;28;20528;-70
2023/04/08 04:56:46;;;;;;;15.93;9.33;;;8.00;99.90;;;;;;5102624;28;20484;-70
2023/04/08 04:59:12;;;;;;;9.77;9.27;;;8.00;99.90;;;;;;5097497;28;20453;-70
2023/04/08 05:01:39;;;;;;;8.93;8.40;;;8.00;99.90;;;;;;5103060;28;20529;-68
2023/04/08 05:04:07;;;;;;;10.73;9.80;;;8.00;99.90;;;;;;5096076;28;20485;-70
2023/04/08 05:06:33;;;;;;;11.30;10.57;;;8.20;99.90;;;;;;5103304;28;20457;-69
2023/04/08 05:09:01;;;;;;;9.20;8.70;;;8.20;99.90;;;;;;5092841;28;20465;-70
2023/04/08 05:11:28;;;;;;;10.10;9.70;;;8.30;99.90;;;;;;5098608;28;20454;-70
2023/04/08 05:13:55;;;;;;;12.77;11.73;;;8.30;99.90;;;;;;5103277;28;20490;-69
2023/04/08 05:16:22;;;;;;;8.37;8.07;;;8.40;99.90;;;;;;5092789;28;20466;-69
2023/04/08 05:18:48;;;;;;;9.77;9.27;;;8.40;99.90;;;;;;5104011;28;20936;-69
2023/04/08 05:21:15;;;;;;;9.53;9.13;;;8.30;99.90;;;;;;5096820;28;20870;-69
2023/04/08 05:23:42;;;;;;;7.90;7.60;;;8.30;99.90;;;;;;5103783;28;20470;-70
2023/04/08 05:26:11;;;;;;;7.63;7.43;;;8.30;99.90;;;;;;5102872;28;20461;-70
2023/04/08 05:28:38;;;;;;;9.13;8.53;;;8.30;99.90;;;;;;5092879;28;20458;-70
2023/04/08 05:31:06;;;;;;;11.80;11.10;;;8.40;99.90;;;;;;5087579;28;20745;-68
2023/04/08 05:33:33;;;;;;;11.63;10.50;;;8.50;99.90;;;;;;5098710;28;20469;-69
2023/04/08 05:36:00;;;;;;;9.60;9.20;;;8.50;99.90;;;;;;5096976;28;20825;-70
2023/04/08 05:38:27;;;;;;;10.70;9.77;;;8.50;99.90;;;;;;5101513;28;20500;-69
2023/04/08 05:40:54;;;;;;;10.13;9.60;;;8.50;99.90;;;;;;5093481;28;20482;-69
2023/04/08 05:43:22;;;;;;;10.50;10.10;;;8.60;99.90;;;;;;5108907;28;20453;-69
2023/04/08 05:45:49;;;;;;;12.03;11.43;;;8.60;99.90;;;;;;5095091;28;20488;-69
2023/04/08 05:48:16;;;;;;;11.97;11.13;;;8.60;99.90;;;;;;5099563;28;20491;-69
2023/04/08 05:50:43;;;;;;;10.70;9.70;;;8.60;99.90;;;;;;5102539;28;20964;-68
2023/04/08 05:53:10;;;;;;;9.90;9.17;;;8.60;99.90;;;;;;5098356;28;20507;-68
2023/04/08 05:55:37;;;;;;;7.80;7.50;;;8.60;99.90;;;;;;5094600;28;20496;-69
2023/04/08 05:58:03;;;;;;;12.67;11.77;;;8.60;99.90;;;;;;5108624;28;20459;-70
2023/04/08 06:00:32;;;;;;;7.83;7.40;;;8.60;99.90;;;;;;5090659;28;20454;-70
2023/04/08 06:02:59;;;;;;;12.30;10.20;;;8.60;99.90;;;;;;5087944;28;21148;-70
2023/04/08 06:05:26;;;;;;;7.90;7.60;;;8.60;99.90;;;;;;5089747;28;20484;-67
2023/04/08 06:07:53;;;;;;;8.07;7.77;;;8.60;99.90;;;;;;5099549;28;20730;-68
2023/04/08 06:10:20;;;;;;;7.33;7.13;;;8.60;99.90;;;;;;5089296;28;20566;-69
2023/04/08 06:12:46;;;;;;;14.20;12.97;;;8.60;99.90;;;;;;5099976;28;20453;-68
2023/04/08 06:15:13;;;;;;;14.60;13.33;;;8.80;99.90;;;;;;5089172;28;20898;-69
2023/04/08 06:17:41;;;;;;;13.27;12.33;;;8.80;99.90;;;;;;5087617;28;20952;-69
2023/04/08 06:20:09;;;;;;;8.27;7.97;;;8.90;99.90;;;;;;5093271;28;20503;-70
2023/04/08 06:22:36;;;;;;;8.03;7.73;;;9.00;99.90;;;;;;5091744;28;20492;-68
2023/04/08 06:25:03;;;;;;;7.67;7.37;;;8.90;99.90;;;;;;5102652;28;20467;-69
2023/04/08 06:27:30;;;;;;;7.80;7.50;;;8.90;99.90;;;;;;5094050;28;20453;-68
2023/04/08 06:29:58;;;;;;;8.83;8.43;;;9.00;99.90;;;;;;5092563;28;20449;-70
2023/04/08 06:32:25;;;;;;;12.83;11.57;;;9.00;99.90;;;;;;5089115;28;20590;-69
2023/04/08 06:34:54;;;;;;;21.03;18.83;;;9.00;99.90;;;;;;5093245;28;20462;-69
2023/04/08 06:37:20;;;;;;;12.07;11.03;;;8.90;99.90;;;;;;5088244;28;20458;-70
2023/04/08 06:39:48;;;;;;;15.00;13.00;;;8.90;99.90;;;;;;5098139;28;20476;-70
2023/04/08 06:42:14;;;;;;;11.03;10.33;;;9.00;99.90;;;;;;5083135;28;20895;-70
2023/04/08 06:44:41;;;;;;;10.23;9.50;;;9.00;99.90;;;;;;5089098;28;20463;-69
2023/04/08 06:47:08;;;;;;;10.97;9.77;;;9.10;99.90;;;;;;5092963;28;20535;-69
2023/04/08 06:49:36;;;;;;;13.20;11.77;;;9.10;99.90;;;;;;5102188;28;20488;-69
2023/04/08 06:52:05;;;;;;;17.43;12.70;;;9.10;99.90;;;;;;5096110;28;20472;-71
2023/04/08 06:54:33;;;;;;;29.40;12.97;;;9.20;99.90;;;;;;5093301;28;20446;-70
2023/04/08 06:56:59;;;;;;;21.90;8.47;;;9.30;99.90;;;;;;5102265;28;20453;-71
2023/04/08 06:59:27;;;;;;;14.87;7.80;;;9.30;99.90;;;;;;5090427;28;20480;-71
2023/04/08 07:01:53;;;;;;;9.17;7.93;;;9.30;99.90;;;;;;5097198;28;20533;-71
2023/04/08 07:04:20;;;;;;;15.03;10.73;;;9.40;99.90;;;;;;5095115;28;20818;-70
2023/04/08 07:06:48;;;;;;;12.67;11.43;;;9.40;99.90;;;;;;5096666;28;20956;-70
2023/04/08 07:09:16;;;;;;;29.10;14.43;;;9.50;99.90;;;;;;5080835;28;20485;-71
2023/04/08 07:11:43;;;;;;;10.03;9.03;;;9.60;99.90;;;;;;5090561;28;20466;-71
2023/04/08 07:14:09;;;;;;;22.10;12.37;;;9.70;99.90;;;;;;5095289;28;20955;-70
2023/04/08 07:16:37;;;;;;;10.73;7.90;;;9.80;99.90;;;;;;5095807;28;20489;-71
2023/04/08 07:19:05;;;;;;;10.50;9.40;;;9.80;99.90;;;;;;5098620;28;20463;-70
2023/04/08 07:21:32;;;;;;;3.93;3.70;;;9.80;99.90;;;;;;5097646;28;20462;-69
2023/04/08 07:23:59;;;;;;;13.03;9.73;;;9.90;99.90;;;;;;5094161;28;20458;-71
2023/04/08 07:26:29;;;;;;;11.93;10.83;;;10.10;99.90;;;;;;5087246;28;20477;-70
2023/04/08 07:28:55;;;;;;;8.03;7.60;;;10.00;99.90;;;;;;5095227;28;20453;-70
2023/04/08 07:31:23;;;;;;;14.97;10.73;;;10.00;99.90;;;;;;5088427;28;21069;-70
2023/04/08 07:33:51;;;;;;;17.73;12.90;;;10.00;99.90;;;;;;5094375;28;20464;-70
2023/04/08 07:36:18;;;;;;;6.90;6.47;;;10.10;99.90;;;;;;5079917;28;20520;-70
2023/04/08 07:38:45;;;;;;;12.63;10.43;;;10.10;99.90;;;;;;5094796;28;21262;-71
2023/04/08 07:41:12;;;;;;;27.87;14.33;;;10.10;99.90;;;;;;5099663;28;20453;-71
2023/04/08 07:43:41;;;;;;;13.67;10.43;;;10.10;99.90;;;;;;5091086;28;20489;-69
2023/04/08 07:46:09;;;;;;;11.10;10.20;;;10.20;99.90;;;;;;5086422;28;20478;-70
2023/04/08 07:48:36;;;;;;;11.43;10.50;;;10.20;99.90;;;;;;5091757;28;20814;-71
2023/04/08 07:51:43;;;;;;;15.57;10.20;;;10.40;99.90;;;;;;5083650;28;21034;-71
2023/04/08 07:54:30;;;;;;;10.93;8.27;;;10.50;99.90;;;;;;5049461;28;20517;-71
2023/04/08 07:56:58;;;;;;;10.83;9.70;;;10.70;99.90;;;;;;5047013;28;20470;-69
2023/04/08 07:59:55;;;;;;;15.00;10.30;;;10.70;99.90;;;;;;5071980;28;20461;-69
2023/04/08 08:02:51;;;;;;;15.67;13.93;;;10.70;99.90;;;;;;5016407;28;20567;-70
2023/04/08 08:05:48;;;;;;;8.53;8.20;;;10.80;99.90;;;;;;4888988;29;20510;-69
2023/04/08 08:08:16;;;;;;;18.23;12.33;;;10.90;99.90;;;;;;4900445;28;20464;-70
2023/04/08 08:10:43;;;;;;;27.37;16.63;;;10.90;99.90;;;;;;4982739;28;20526;-69
2023/04/08 08:13:11;;;;;;;10.00;9.57;;;11.10;99.90;;;;;;5100904;28;20959;-68
2023/04/08 08:15:38;;;;;;;20.40;17.07;;;11.10;99.90;;;;;;5090127;28;20462;-70
2023/04/08 08:18:04;;;;;;;17.80;12.90;;;11.30;99.90;;;;;;5090334;28;21018;-69
2023/04/08 08:20:31;;;;;;;12.57;11.60;;;11.30;99.90;;;;;;5098527;28;20486;-71
2023/04/08 08:22:58;;;;;;;24.37;19.70;;;11.40;99.90;;;;;;5101164;28;20493;-68
2023/04/08 08:25:27;;;;;;;14.80;13.53;;;11.40;99.90;;;;;;5096951;28;20526;-69
2023/04/08 08:27:54;;;;;;;11.83;11.03;;;11.20;99.90;;;;;;5086363;28;20487;-69
2023/04/08 08:30:21;;;;;;;11.23;10.30;;;11.00;99.90;;;;;;5097693;28;20462;-70
2023/04/08 08:32:48;;;;;;;9.20;8.90;;;10.90;99.90;;;;;;5101017;28;20470;-70
2023/04/08 08:35:15;;;;;;;10.00;9.60;;;11.20;99.90;;;;;;5090599;28;20466;-70
2023/04/08 08:37:42;;;;;;;11.97;11.40;;;11.60;99.90;;;;;;5100026;28;20465;-70
2023/04/08 08:40:10;;;;;;;17.00;15.63;;;11.90;99.90;;;;;;5088507;28;20523;-70
2023/04/08 08:42:39;;;;;;;21.27;17.93;;;12.40;99.90;;;;;;5091383;28;20476;-70
2023/04/08 08:45:07;;;;;;;13.43;12.30;;;12.30;99.90;;;;;;5089142;28;21358;-70
2023/04/08 08:47:34;;;;;;;14.07;13.17;;;12.30;99.90;;;;;;5099374;28;21000;-71
2023/04/08 08:50:03;;;;;;;16.60;15.50;;;12.50;99.90;;;;;;5098724;28;20457;-70
2023/04/08 08:52:30;;;;;;;18.23;17.00;;;12.50;99.90;;;;;;5082212;28;20818;-71
2023/04/08 08:55:00;;;;;;;13.50;12.70;;;12.30;99.90;;;;;;5092135;28;20468;-70
2023/04/08 08:57:27;;;;;;;33.93;22.90;;;12.40;99.90;;;;;;5097849;28;20560;-69
2023/04/08 08:59:55;;;;;;;15.83;15.00;;;12.30;99.90;;;;;;5098657;28;20547;-69
2023/04/08 09:02:27;;;;;;;17.83;16.50;;;12.50;99.90;;;;;;5097607;28;20487;-70
2023/04/08 09:04:59;;;;;;;13.73;13.13;;;12.40;99.90;;;;;;5097588;28;20462;-70
2023/04/08 09:07:26;;;;;;;17.03;15.33;;;12.60;99.90;;;;;;5101561;28;20473;-70
2023/04/08 09:09:55;;;;;;;24.93;22.23;;;12.60;99.90;;;;;;5090415;28;20496;-71
2023/04/08 09:12:23;;;;;;;30.27;23.10;;;12.60;99.90;;;;;;5100846;28;20636;-71
2023/04/08 09:14:51;;;;;;;23.83;21.63;;;12.60;99.90;;;;;;5097475;27;20489;-70
2023/04/08 09:17:33;;;;;;;16.67;15.53;;;12.60;99.90;;;;;;5094019;28;20462;-70
2023/04/08 09:20:11;;;;;;;20.93;19.13;;;13.00;99.90;;;;;;5078939;28;20531;-70
2023/04/08 09:22:58;;;;;;;20.40;18.83;;;13.20;99.90;;;;;;5102438;28;20563;-70
2023/04/08 09:25:26;;;;;;;16.57;15.77;;;13.30;99.90;;;;;;5101430;28;20453;-71
2023/04/08 09:27:54;;;;;;;33.47;25.10;;;13.20;99.90;;;;;;5097432;28;20461;-69
2023/04/08 09:30:26;;;;;;;32.00;27.37;;;13.30;99.90;;;;;;5099067;28;20876;-71
2023/04/08 09:32:55;;;;;;;21.33;19.17;;;13.10;99.90;;;;;;5103004;28;20466;-70
2023/04/08 09:35:23;;;;;;;12.87;12.37;;;13.00;99.90;;;;;;5103276;28;20469;-69
2023/04/08 09:37:51;;;;;;;14.70;13.97;;;13.10;99.90;;;;;;5097054;28;21009;-70
2023/04/08 09:40:18;;;;;;;14.33;13.50;;;13.50;99.90;;;;;;5092478;28;20466;-71
2023/04/08 09:42:47;;;;;;;27.67;24.10;;;13.70;99.90;;;;;;5095006;28;21010;-70
2023/04/08 09:45:16;;;;;;;21.07;19.10;;;13.60;99.90;;;;;;5094583;28;20552;-72
2023/04/08 09:47:57;;;;;;;17.93;16.23;;;13.50;99.90;;;;;;5110404;28;20508;-70
2023/04/08 09:50:28;;;;;;;38.90;25.83;;;13.20;99.90;;;;;;5087031;28;20532;-71
2023/04/08 09:53:01;;;;;;;21.57;19.70;;;13.00;99.90;;;;;;5094041;28;20485;-70
2023/04/08 09:55:33;;;;;;;14.93;13.83;;;13.10;99.90;;;;;;5089911;28;20733;-70
2023/04/08 09:58:04;;;;;;;34.13;25.20;;;13.20;99.90;;;;;;5096288;28;20878;-71
2023/04/08 10:00:34;;;;;;;29.33;24.63;;;13.20;99.90;;;;;;5097798;28;20463;-71
2023/04/08 10:03:10;;;;;;;24.43;21.60;;;13.20;99.90;;;;;;5094431;28;20507;-71
2023/04/08 10:05:38;;;;;;;18.47;17.10;;;13.30;99.90;;;;;;5090755;28;20461;-71
2023/04/08 10:08:06;;;;;;;16.67;15.73;;;13.00;99.90;;;;;;5091406;28;20936;-70
2023/04/08 10:10:34;;;;;;;30.30;21.33;;;12.90;99.90;;;;;;5090536;28;20474;-69
2023/04/08 10:13:02;;;;;;;17.27;15.97;;;12.60;99.90;;;;;;5098446;28;20547;-70
2023/04/08 10:15:30;;;;;;;23.30;21.27;;;12.80;99.90;;;;;;5104301;28;20546;-70
2023/04/08 10:18:34;;;;;;;27.40;21.23;;;12.80;99.90;;;;;;5094451;28;20458;-70
2023/04/08 10:21:01;;;;;;;17.33;16.10;;;12.50;99.90;;;;;;5087098;28;20506;-70
2023/04/08 10:23:58;;;;;;;17.23;16.00;;;12.30;99.90;;;;;;5102959;28;20504;-70
2023/04/08 10:26:33;;;;;;;19.57;18.27;;;12.60;99.90;;;;;;5090152;28;20462;-71
2023/04/08 10:29:31;;;;;;;20.93;19.33;;;12.70;99.90;;;;;;5082142;28;20522;-70
2023/04/08 10:31:58;;;;;;;21.47;19.40;;;12.80;99.90;;;;;;5090479;28;20454;-71
2023/04/08 10:34:27;;;;;;;20.67;18.83;;;12.70;99.90;;;;;;5097927;28;20462;-71
2023/04/08 10:36:55;;;;;;;16.27;15.37;;;12.60;99.90;;;;;;5104501;28;20501;-70
2023/04/08 10:39:23;;;;;;;13.27;12.57;;;12.80;99.90;;;;;;5097568;28;20486;-71
2023/04/08 10:41:51;;;;;;;14.13;13.07;;;13.00;99.90;;;;;;5084154;28;20815;-70
2023/04/08 10:44:20;;;;;;;14.70;13.90;;;13.30;99.90;;;;;;5097052;28;20490;-70
2023/04/08 10:46:48;;;;;;;17.17;15.90;;;13.20;99.90;;;;;;5091169;28;20555;-70
2023/04/08 10:49:15;;;;;;;16.40;15.33;;;13.50;99.90;;;;;;5088344;28;20956;-71
2023/04/08 10:51:43;;;;;;;12.77;12.23;;;13.10;99.90;;;;;;5088422;28;20519;-71
2023/04/08 10:54:12;;;;;;;17.97;16.40;;;13.30;99.90;;;;;;5101124;28;20568;-71
2023/04/08 10:56:44;;;;;;;18.07;16.37;;;13.50;99.90;;;;;;5097653;28;20499;-70
2023/04/08 10:59:12;;;;;;;15.57;14.60;;;13.90;99.90;;;;;;5091564;28;20577;-71
2023/04/08 11:01:40;;;;;;;16.37;15.50;;;14.30;99.90;;;;;;5088001;28;20507;-72
2023/04/08 11:04:15;;;;;;;15.63;14.53;;;14.40;99.90;;;;;;5091253;28;20490;-72
2023/04/08 11:06:45;;;;;;;24.23;19.53;;;14.50;99.90;;;;;;5085349;28;20558;-71
2023/04/08 11:09:13;;;;;;;20.00;18.40;;;14.50;99.90;;;;;;5095868;28;20589;-70
2023/04/08 11:11:42;;;;;;;15.00;14.30;;;14.50;99.90;;;;;;5086738;28;20461;-71
2023/04/08 11:14:09;;;;;;;16.37;14.93;;;14.30;99.90;;;;;;5100621;28;20489;-70
2023/04/08 11:16:37;;;;;;;13.93;13.27;;;14.40;99.90;;;;;;5087109;28;20730;-72
2023/04/08 11:19:05;;;;;;;17.63;16.30;;;14.60;99.90;;;;;;5094280;28;20460;-72
2023/04/08 11:21:35;;;;;;;17.67;16.27;;;15.00;99.90;;;;;;5094491;28;20456;-71
2023/04/08 11:24:08;;;;;;;14.13;13.43;;;15.20;99.90;;;;;;5101613;28;20496;-73
2023/04/08 11:26:36;;;;;;;15.43;14.63;;;15.50;99.90;;;;;;5090038;28;20831;-72
2023/04/08 11:29:05;;;;;;;15.17;14.37;;;15.50;99.90;;;;;;5088811;28;20481;-71
2023/04/08 11:31:33;;;;;;;14.03;12.70;;;15.10;99.90;;;;;;5095652;28;20450;-71
2023/04/08 11:33:59;;;;;;;15.33;14.37;;;14.80;99.90;;;;;;5085397;28;20461;-71
2023/04/08 11:36:29;;;;;;;19.67;18.37;;;14.90;99.90;;;;;;5087751;28;20446;-72
2023/04/08 11:38:57;;;;;;;16.87;15.83;;;14.80;99.90;;;;;;5097836;28;20535;-72
2023/04/08 11:41:25;;;;;;;15.50;14.57;;;14.70;99.90;;;;;;5096050;28;20461;-71
2023/04/08 11:43:57;;;;;;;13.37;12.77;;;14.80;99.90;;;;;;5099109;28;20485;-71
2023/04/08 11:46:24;;;;;;;16.23;15.23;;;14.80;99.90;;;;;;5088919;28;20507;-72
2023/04/08 11:48:59;;;;;;;16.50;15.50;;;15.10;99.90;;;;;;5094811;28;20849;-70
2023/04/08 11:51:27;;;;;;;13.60;12.90;;;14.90;99.90;;;;;;5088401;28;20464;-70
2023/04/08 11:53:54;;;;;;;14.40;13.20;;;14.90;99.90;;;;;;5094468;28;20496;-71
2023/04/08 11:56:22;;;;;;;13.73;13.13;;;14.80;99.90;;;;;;5099883;28;20955;-70
2023/04/08 11:58:52;;;;;;;13.00;12.50;;;14.80;99.90;;;;;;5101457;28;20978;-71
2023/04/08 12:01:20;;;;;;;15.50;14.40;;;15.00;99.90;;;;;;5087172;28;20489;-71
2023/04/08 12:03:57;;;;;;;15.00;14.30;;;15.40;99.90;;;;;;5086957;28;21045;-71
2023/04/08 12:06:26;;;;;;;15.27;14.37;;;15.60;99.90;;;;;;5101351;28;20467;-72
2023/04/08 12:08:54;;;;;;;20.50;18.90;;;15.70;99.90;;;;;;5092339;28;20454;-70
2023/04/08 12:11:21;;;;;;;14.83;14.10;;;15.20;99.90;;;;;;5100441;28;20672;-71
2023/04/08 12:13:51;;;;;;;13.83;13.23;;;15.20;99.90;;;;;;5096444;28;20465;-71
2023/04/08 12:16:20;;;;;;;13.10;12.60;;;15.40;99.90;;;;;;5095793;28;21007;-72
2023/04/08 12:18:47;;;;;;;16.03;15.23;;;15.70;99.90;;;;;;5088674;28;20889;-70
2023/04/08 12:21:14;;;;;;;14.63;13.90;;;15.70;99.90;;;;;;5092236;28;20491;-70
2023/04/08 12:23:42;;;;;;;18.37;17.17;;;15.80;99.90;;;;;;5094744;28;20560;-71
2023/04/08 12:26:10;;;;;;;15.00;14.30;;;16.10;99.90;;;;;;5100291;28;20952;-70
2023/04/08 12:28:37;;;;;;;15.07;14.17;;;16.40;99.90;;;;;;5099196;28;20467;-72
2023/04/08 12:31:05;;;;;;;15.83;14.97;;;16.50;99.90;;;;;;5088161;28;20467;-69
2023/04/08 12:33:32;;;;;;;13.40;12.80;;;17.10;99.90;;;;;;5098180;28;20835;-70
2023/04/08 12:35:59;;;;;;;18.13;17.20;;;18.00;99.90;;;;;;5094894;28;20457;-69
2023/04/08 12:38:27;;;;;;;17.13;15.87;;;18.70;99.90;;;;;;5096975;28;20504;-71
2023/04/08 12:40:55;;;;;;;20.03;18.33;;;18.80;99.90;;;;;;5101039;28;20452;-70
2023/04/08 12:43:23;;;;;;;19.43;18.33;;;18.50;99.50;;;;;;5103993;28;20500;-70